sensor_id;sensor_type;location;lat;lon;timestamp;temperature;humidity
72650;SHT31;61467;50.674;4.618;2023-04-25T00:01:38;10.03;65.11
72650;SHT31;61467;50.674;4.618;2023-04-25T00:04:04;10.00;65.35
72650;SHT31;61467;50.674;4.618;2023-04-25T00:06:34;9.87;65.55
72650;SHT31;61467;50.674;4.618;2023-04-25T00:09:02;9.76;65.61
72650;SHT31;61467;50.674;4.618;2023-04-25T00:11:29;9.69;65.49
72650;SHT31;61467;50.674;4.618;2023-04-25T00:13:56;9.85;65.71
72650;SHT31;61467;50.674;4.618;2023-04-25T00:16:23;9.96;65.77
72650;SHT31;61467;50.674;4.618;2023-04-25T00:18:50;9.62;65.49
72650;SHT31;61467;50.674;4.618;2023-04-25T00:21:19;9.61;66.35
72650;SHT31;61467;50.674;4.618;2023-04-25T00:23:47;9.81;66.05
72650;SHT31;61467;50.674;4.618;2023-04-25T00:26:15;9.97;66.07
72650;SHT31;61467;50.674;4.618;2023-04-25T00:28:42;9.86;65.58
72650;SHT31;61467;50.674;4.618;2023-04-25T00:31:09;9.99;65.84
72650;SHT31;61467;50.674;4.618;2023-04-25T00:33:35;9.72;65.76
72650;SHT31;61467;50.674;4.618;2023-04-25T00:36:02;9.61;65.91
72650;SHT31;61467;50.674;4.618;2023-04-25T00:38:31;9.69;65.99
72650;SHT31;61467;50.674;4.618;2023-04-25T00:40:59;9.81;66.23
72650;SHT31;61467;50.674;4.618;2023-04-25T00:43:26;9.93;66.19
72650;SHT31;61467;50.674;4.618;2023-04-25T00:45:53;10.02;65.86
72650;SHT31;61467;50.674;4.618;2023-04-25T00:48:23;9.85;65.96
72650;SHT31;61467;50.674;4.618;2023-04-25T00:50:52;9.78;66.34
72650;SHT31;61467;50.674;4.618;2023-04-25T00:53:20;9.68;66.84
72650;SHT31;61467;50.674;4.618;2023-04-25T00:55:47;9.63;67.06
72650;SHT31;61467;50.674;4.618;2023-04-25T00:58:18;9.72;67.71
72650;SHT31;61467;50.674;4.618;2023-04-25T01:00:48;9.78;67.18
72650;SHT31;61467;50.674;4.618;2023-04-25T01:03:18;9.90;67.47
72650;SHT31;61467;50.674;4.618;2023-04-25T01:05:46;9.87;66.58
72650;SHT31;61467;50.674;4.618;2023-04-25T01:08:13;9.63;67.08
72650;SHT31;61467;50.674;4.618;2023-04-25T01:10:40;9.58;67.40
72650;SHT31;61467;50.674;4.618;2023-04-25T01:13:09;9.46;66.77
72650;SHT31;61467;50.674;4.618;2023-04-25T01:15:38;9.52;66.82
72650;SHT31;61467;50.674;4.618;2023-04-25T01:18:05;9.78;67.13
72650;SHT31;61467;50.674;4.618;2023-04-25T01:20:33;9.65;66.69
72650;SHT31;61467;50.674;4.618;2023-04-25T01:23:01;9.73;66.87
72650;SHT31;61467;50.674;4.618;2023-04-25T01:25:29;9.71;66.66
72650;SHT31;61467;50.674;4.618;2023-04-25T01:27:58;9.75;66.80
72650;SHT31;61467;50.674;4.618;2023-04-25T01:30:26;9.73;66.83
72650;SHT31;61467;50.674;4.618;2023-04-25T01:32:54;9.44;67.81
72650;SHT31;61467;50.674;4.618;2023-04-25T01:35:22;9.51;68.06
72650;SHT31;61467;50.674;4.618;2023-04-25T01:37:51;9.36;68.56
72650;SHT31;61467;50.674;4.618;2023-04-25T01:40:21;9.48;68.22
72650;SHT31;61467;50.674;4.618;2023-04-25T01:42:48;9.51;68.58
72650;SHT31;61467;50.674;4.618;2023-04-25T01:45:15;9.55;68.50
72650;SHT31;61467;50.674;4.618;2023-04-25T01:47:43;9.49;69.30
72650;SHT31;61467;50.674;4.618;2023-04-25T01:50:14;9.42;69.43
72650;SHT31;61467;50.674;4.618;2023-04-25T01:52:43;9.54;69.52
72650;SHT31;61467;50.674;4.618;2023-04-25T01:55:10;9.63;69.46
72650;SHT31;61467;50.674;4.618;2023-04-25T01:57:38;9.58;69.45
72650;SHT31;61467;50.674;4.618;2023-04-25T02:00:06;9.71;69.50
72650;SHT31;61467;50.674;4.618;2023-04-25T02:02:34;9.68;69.77
72650;SHT31;61467;50.674;4.618;2023-04-25T02:05:00;9.66;69.48
72650;SHT31;61467;50.674;4.618;2023-04-25T02:07:27;9.59;70.28
72650;SHT31;61467;50.674;4.618;2023-04-25T02:09:54;9.17;71.10
72650;SHT31;61467;50.674;4.618;2023-04-25T02:12:21;9.31;71.25
72650;SHT31;61467;50.674;4.618;2023-04-25T02:14:49;9.34;71.66
72650;SHT31;61467;50.674;4.618;2023-04-25T02:17:16;9.32;71.40
72650;SHT31;61467;50.674;4.618;2023-04-25T02:19:43;9.41;71.53
72650;SHT31;61467;50.674;4.618;2023-04-25T02:22:10;9.32;72.21
72650;SHT31;61467;50.674;4.618;2023-04-25T02:24:37;9.34;71.47
72650;SHT31;61467;50.674;4.618;2023-04-25T02:27:06;9.39;71.89
72650;SHT31;61467;50.674;4.618;2023-04-25T02:29:33;9.41;71.89
72650;SHT31;61467;50.674;4.618;2023-04-25T02:32:01;9.41;72.29
72650;SHT31;61467;50.674;4.618;2023-04-25T02:34:28;9.44;72.36
72650;SHT31;61467;50.674;4.618;2023-04-25T02:36:55;9.48;72.24
72650;SHT31;61467;50.674;4.618;2023-04-25T02:39:22;9.44;72.52
72650;SHT31;61467;50.674;4.618;2023-04-25T02:41:51;9.42;72.58
72650;SHT31;61467;50.674;4.618;2023-04-25T02:44:18;9.46;72.53
72650;SHT31;61467;50.674;4.618;2023-04-25T02:46:45;9.42;72.95
72650;SHT31;61467;50.674;4.618;2023-04-25T02:49:14;9.34;73.10
72650;SHT31;61467;50.674;4.618;2023-04-25T02:51:40;9.34;73.10
72650;SHT31;61467;50.674;4.618;2023-04-25T02:54:07;9.28;73.42
72650;SHT31;61467;50.674;4.618;2023-04-25T02:56:34;9.31;73.01
72650;SHT31;61467;50.674;4.618;2023-04-25T02:59:01;9.24;73.39
72650;SHT31;61467;50.674;4.618;2023-04-25T03:01:28;9.32;73.98
72650;SHT31;61467;50.674;4.618;2023-04-25T03:03:55;9.04;74.45
72650;SHT31;61467;50.674;4.618;2023-04-25T03:06:23;9.04;74.75
72650;SHT31;61467;50.674;4.618;2023-04-25T03:08:50;8.91;75.27
72650;SHT31;61467;50.674;4.618;2023-04-25T03:11:17;9.04;75.03
72650;SHT31;61467;50.674;4.618;2023-04-25T03:13:45;8.97;75.35
72650;SHT31;61467;50.674;4.618;2023-04-25T03:16:12;8.91;75.56
72650;SHT31;61467;50.674;4.618;2023-04-25T03:18:39;8.77;76.08
72650;SHT31;61467;50.674;4.618;2023-04-25T03:21:06;8.91;76.19
72650;SHT31;61467;50.674;4.618;2023-04-25T03:23:34;8.93;75.66
72650;SHT31;61467;50.674;4.618;2023-04-25T03:26:01;8.49;73.30
72650;SHT31;61467;50.674;4.618;2023-04-25T03:28:28;8.77;73.44
72650;SHT31;61467;50.674;4.618;2023-04-25T03:30:54;8.88;73.44
72650;SHT31;61467;50.674;4.618;2023-04-25T03:33:21;8.87;72.86
72650;SHT31;61467;50.674;4.618;2023-04-25T03:35:48;8.90;72.32
72650;SHT31;61467;50.674;4.618;2023-04-25T03:38:16;8.90;72.06
72650;SHT31;61467;50.674;4.618;2023-04-25T03:40:44;8.97;71.86
72650;SHT31;61467;50.674;4.618;2023-04-25T03:43:11;9.10;71.18
72650;SHT31;61467;50.674;4.618;2023-04-25T03:45:38;9.10;71.30
72650;SHT31;61467;50.674;4.618;2023-04-25T03:48:05;9.08;70.91
72650;SHT31;61467;50.674;4.618;2023-04-25T03:50:32;9.01;70.96
72650;SHT31;61467;50.674;4.618;2023-04-25T03:52:58;9.08;71.55
72650;SHT31;61467;50.674;4.618;2023-04-25T03:55:25;9.13;71.36
72650;SHT31;61467;50.674;4.618;2023-04-25T03:57:55;8.94;70.54
72650;SHT31;61467;50.674;4.618;2023-04-25T04:00:24;8.96;70.61
72650;SHT31;61467;50.674;4.618;2023-04-25T04:02:51;8.99;71.56
72650;SHT31;61467;50.674;4.618;2023-04-25T04:05:18;9.03;70.66
72650;SHT31;61467;50.674;4.618;2023-04-25T04:07:47;8.96;71.42
72650;SHT31;61467;50.674;4.618;2023-04-25T04:10:14;9.00;71.26
72650;SHT31;61467;50.674;4.618;2023-04-25T04:12:41;8.97;70.89
72650;SHT31;61467;50.674;4.618;2023-04-25T04:15:10;8.84;70.38
72650;SHT31;61467;50.674;4.618;2023-04-25T04:17:37;8.91;70.79
72650;SHT31;61467;50.674;4.618;2023-04-25T04:20:05;8.91;71.27
72650;SHT31;61467;50.674;4.618;2023-04-25T04:22:33;8.94;71.26
72650;SHT31;61467;50.674;4.618;2023-04-25T04:25:01;8.93;72.43
72650;SHT31;61467;50.674;4.618;2023-04-25T04:27:28;8.84;72.43
72650;SHT31;61467;50.674;4.618;2023-04-25T04:29:55;8.72;72.62
72650;SHT31;61467;50.674;4.618;2023-04-25T04:32:24;8.76;72.70
72650;SHT31;61467;50.674;4.618;2023-04-25T04:34:53;8.59;72.62
72650;SHT31;61467;50.674;4.618;2023-04-25T04:37:21;8.50;73.23
72650;SHT31;61467;50.674;4.618;2023-04-25T04:39:49;8.32;73.08
72650;SHT31;61467;50.674;4.618;2023-04-25T04:42:17;8.31;73.42
72650;SHT31;61467;50.674;4.618;2023-04-25T04:44:44;8.12;74.82
72650;SHT31;61467;50.674;4.618;2023-04-25T04:47:11;8.31;74.21
72650;SHT31;61467;50.674;4.618;2023-04-25T04:49:39;8.12;72.99
72650;SHT31;61467;50.674;4.618;2023-04-25T04:52:06;8.18;74.09
72650;SHT31;61467;50.674;4.618;2023-04-25T04:54:33;8.36;73.13
72650;SHT31;61467;50.674;4.618;2023-04-25T04:57:00;8.43;73.82
72650;SHT31;61467;50.674;4.618;2023-04-25T04:59:27;8.36;72.94
72650;SHT31;61467;50.674;4.618;2023-04-25T05:01:54;8.34;72.57
72650;SHT31;61467;50.674;4.618;2023-04-25T05:04:21;8.39;72.17
72650;SHT31;61467;50.674;4.618;2023-04-25T05:06:49;8.46;72.66
72650;SHT31;61467;50.674;4.618;2023-04-25T05:09:16;8.76;75.07
72650;SHT31;61467;50.674;4.618;2023-04-25T05:11:44;8.79;71.14
72650;SHT31;61467;50.674;4.618;2023-04-25T05:14:11;8.83;71.29
72650;SHT31;61467;50.674;4.618;2023-04-25T05:16:38;8.77;70.22
72650;SHT31;61467;50.674;4.618;2023-04-25T05:19:07;8.67;70.51
72650;SHT31;61467;50.674;4.618;2023-04-25T05:21:34;8.56;71.33
72650;SHT31;61467;50.674;4.618;2023-04-25T05:24:03;8.56;70.85
72650;SHT31;61467;50.674;4.618;2023-04-25T05:26:30;8.56;70.87
72650;SHT31;61467;50.674;4.618;2023-04-25T05:28:57;8.66;71.54
72650;SHT31;61467;50.674;4.618;2023-04-25T05:31:24;8.76;71.13
72650;SHT31;61467;50.674;4.618;2023-04-25T05:33:50;8.73;71.60
72650;SHT31;61467;50.674;4.618;2023-04-25T05:36:18;8.80;71.41
72650;SHT31;61467;50.674;4.618;2023-04-25T05:38:45;8.72;71.08
72650;SHT31;61467;50.674;4.618;2023-04-25T05:41:13;8.83;71.53
72650;SHT31;61467;50.674;4.618;2023-04-25T05:43:40;8.74;71.55
72650;SHT31;61467;50.674;4.618;2023-04-25T05:46:10;8.81;71.77
72650;SHT31;61467;50.674;4.618;2023-04-25T05:48:37;8.74;71.39
72650;SHT31;61467;50.674;4.618;2023-04-25T05:51:04;8.48;71.17
72650;SHT31;61467;50.674;4.618;2023-04-25T05:53:31;8.52;71.18
72650;SHT31;61467;50.674;4.618;2023-04-25T05:55:58;8.41;70.87
72650;SHT31;61467;50.674;4.618;2023-04-25T05:58:26;8.42;71.93
72650;SHT31;61467;50.674;4.618;2023-04-25T06:00:53;8.52;71.00
72650;SHT31;61467;50.674;4.618;2023-04-25T06:03:21;8.55;72.01
72650;SHT31;61467;50.674;4.618;2023-04-25T06:05:47;8.62;72.37
72650;SHT31;61467;50.674;4.618;2023-04-25T06:08:14;8.57;71.69
72650;SHT31;61467;50.674;4.618;2023-04-25T06:10:42;8.45;71.62
72650;SHT31;61467;50.674;4.618;2023-04-25T06:13:09;8.45;71.84
72650;SHT31;61467;50.674;4.618;2023-04-25T06:15:37;8.43;71.37
72650;SHT31;61467;50.674;4.618;2023-04-25T06:18:05;8.45;71.27
72650;SHT31;61467;50.674;4.618;2023-04-25T06:20:34;8.39;71.64
72650;SHT31;61467;50.674;4.618;2023-04-25T06:23:01;8.39;72.53
72650;SHT31;61467;50.674;4.618;2023-04-25T06:25:28;8.28;71.44
72650;SHT31;61467;50.674;4.618;2023-04-25T06:27:56;8.46;71.90
72650;SHT31;61467;50.674;4.618;2023-04-25T06:30:23;8.60;72.44
72650;SHT31;61467;50.674;4.618;2023-04-25T06:33:10;8.65;72.25
72650;SHT31;61467;50.674;4.618;2023-04-25T06:35:39;8.69;72.78
72650;SHT31;61467;50.674;4.618;2023-04-25T06:38:06;8.73;72.41
72650;SHT31;61467;50.674;4.618;2023-04-25T06:40:35;8.73;71.51
72650;SHT31;61467;50.674;4.618;2023-04-25T06:43:02;8.77;72.14
72650;SHT31;61467;50.674;4.618;2023-04-25T06:45:29;8.81;72.00
72650;SHT31;61467;50.674;4.618;2023-04-25T06:47:55;8.84;72.10
72650;SHT31;61467;50.674;4.618;2023-04-25T06:50:24;8.77;71.40
72650;SHT31;61467;50.674;4.618;2023-04-25T06:52:51;8.83;71.98
72650;SHT31;61467;50.674;4.618;2023-04-25T06:55:18;8.80;71.20
72650;SHT31;61467;50.674;4.618;2023-04-25T06:57:45;8.59;71.18
72650;SHT31;61467;50.674;4.618;2023-04-25T07:00:13;8.67;71.59
72650;SHT31;61467;50.674;4.618;2023-04-25T07:02:40;8.73;71.76
72650;SHT31;61467;50.674;4.618;2023-04-25T07:05:10;8.70;71.38
72650;SHT31;61467;50.674;4.618;2023-04-25T07:07:38;8.83;71.82
72650;SHT31;61467;50.674;4.618;2023-04-25T07:10:05;8.60;72.63
72650;SHT31;61467;50.674;4.618;2023-04-25T07:12:32;8.69;72.91
72650;SHT31;61467;50.674;4.618;2023-04-25T07:15:01;8.36;73.33
72650;SHT31;61467;50.674;4.618;2023-04-25T07:17:32;8.60;72.96
72650;SHT31;61467;50.674;4.618;2023-04-25T07:19:59;8.53;72.17
72650;SHT31;61467;50.674;4.618;2023-04-25T07:22:29;8.57;72.27
72650;SHT31;61467;50.674;4.618;2023-04-25T07:24:57;8.52;71.45
72650;SHT31;61467;50.674;4.618;2023-04-25T07:27:24;8.57;71.77
72650;SHT31;61467;50.674;4.618;2023-04-25T07:29:51;8.59;71.72
72650;SHT31;61467;50.674;4.618;2023-04-25T07:32:17;8.52;71.54
72650;SHT31;61467;50.674;4.618;2023-04-25T07:34:45;8.32;72.47
72650;SHT31;61467;50.674;4.618;2023-04-25T07:37:11;8.59;72.97
72650;SHT31;61467;50.674;4.618;2023-04-25T07:39:39;8.79;71.87
72650;SHT31;61467;50.674;4.618;2023-04-25T07:42:07;9.03;72.95
72650;SHT31;61467;50.674;4.618;2023-04-25T07:44:34;9.07;73.02
72650;SHT31;61467;50.674;4.618;2023-04-25T07:47:05;9.17;73.40
72650;SHT31;61467;50.674;4.618;2023-04-25T07:49:33;9.18;72.24
72650;SHT31;61467;50.674;4.618;2023-04-25T07:52:00;8.84;71.56
72650;SHT31;61467;50.674;4.618;2023-04-25T07:54:27;8.57;72.50
72650;SHT31;61467;50.674;4.618;2023-04-25T07:56:55;8.42;73.47
72650;SHT31;61467;50.674;4.618;2023-04-25T07:59:23;8.90;72.91
72650;SHT31;61467;50.674;4.618;2023-04-25T08:01:50;8.90;71.79
72650;SHT31;61467;50.674;4.618;2023-04-25T08:04:17;9.10;72.68
72650;SHT31;61467;50.674;4.618;2023-04-25T08:06:46;9.04;72.50
72650;SHT31;61467;50.674;4.618;2023-04-25T08:09:15;9.24;72.36
72650;SHT31;61467;50.674;4.618;2023-04-25T08:11:42;9.05;71.94
72650;SHT31;61467;50.674;4.618;2023-04-25T08:14:09;9.14;71.97
72650;SHT31;61467;50.674;4.618;2023-04-25T08:16:37;9.24;70.84
72650;SHT31;61467;50.674;4.618;2023-04-25T08:19:04;9.01;71.37
72650;SHT31;61467;50.674;4.618;2023-04-25T08:21:31;8.97;71.57
72650;SHT31;61467;50.674;4.618;2023-04-25T08:23:58;9.13;72.12
72650;SHT31;61467;50.674;4.618;2023-04-25T08:26:25;8.57;72.26
72650;SHT31;61467;50.674;4.618;2023-04-25T08:28:52;8.90;72.03
72650;SHT31;61467;50.674;4.618;2023-04-25T08:31:19;8.70;72.76
72650;SHT31;61467;50.674;4.618;2023-04-25T08:33:47;9.01;73.07
72650;SHT31;61467;50.674;4.618;2023-04-25T08:36:14;8.96;70.92
72650;SHT31;61467;50.674;4.618;2023-04-25T08:38:42;8.76;70.17
72650;SHT31;61467;50.674;4.618;2023-04-25T08:41:11;8.60;69.69
72650;SHT31;61467;50.674;4.618;2023-04-25T08:43:42;8.46;70.44
72650;SHT31;61467;50.674;4.618;2023-04-25T08:46:09;8.66;69.91
72650;SHT31;61467;50.674;4.618;2023-04-25T08:48:36;9.13;70.02
72650;SHT31;61467;50.674;4.618;2023-04-25T08:51:06;9.34;68.21
72650;SHT31;61467;50.674;4.618;2023-04-25T08:53:34;9.13;66.90
72650;SHT31;61467;50.674;4.618;2023-04-25T08:56:01;9.18;66.48
72650;SHT31;61467;50.674;4.618;2023-04-25T08:58:29;9.14;66.85
72650;SHT31;61467;50.674;4.618;2023-04-25T09:00:56;9.51;67.67
72650;SHT31;61467;50.674;4.618;2023-04-25T09:03:23;9.75;67.73
72650;SHT31;61467;50.674;4.618;2023-04-25T09:05:51;10.00;66.20
72650;SHT31;61467;50.674;4.618;2023-04-25T09:08:20;9.52;63.85
72650;SHT31;61467;50.674;4.618;2023-04-25T09:10:47;9.34;63.58
72650;SHT31;61467;50.674;4.618;2023-04-25T09:13:24;9.51;64.49
72650;SHT31;61467;50.674;4.618;2023-04-25T09:15:52;9.85;63.77
72650;SHT31;61467;50.674;4.618;2023-04-25T09:18:25;9.69;60.84
72650;SHT31;61467;50.674;4.618;2023-04-25T09:20:53;9.21;61.83
72650;SHT31;61467;50.674;4.618;2023-04-25T09:23:23;9.15;61.39
72650;SHT31;61467;50.674;4.618;2023-04-25T09:25:51;9.14;60.22
72650;SHT31;61467;50.674;4.618;2023-04-25T09:28:23;9.72;62.31
72650;SHT31;61467;50.674;4.618;2023-04-25T09:30:54;10.09;63.08
72650;SHT31;61467;50.674;4.618;2023-04-25T09:33:27;10.24;60.37
72650;SHT31;61467;50.674;4.618;2023-04-25T09:36:01;10.47;58.70
72650;SHT31;61467;50.674;4.618;2023-04-25T09:38:30;10.54;58.05
72650;SHT31;61467;50.674;4.618;2023-04-25T09:40:58;10.44;59.18
72650;SHT31;61467;50.674;4.618;2023-04-25T09:43:26;10.50;58.30
72650;SHT31;61467;50.674;4.618;2023-04-25T09:45:54;10.65;59.06
72650;SHT31;61467;50.674;4.618;2023-04-25T09:48:25;10.51;56.86
72650;SHT31;61467;50.674;4.618;2023-04-25T09:51:04;10.78;58.20
72650;SHT31;61467;50.674;4.618;2023-04-25T09:53:35;10.47;56.08
72650;SHT31;61467;50.674;4.618;2023-04-25T09:56:04;9.99;57.35
72650;SHT31;61467;50.674;4.618;2023-04-25T09:58:32;10.44;58.28
72650;SHT31;61467;50.674;4.618;2023-04-25T10:01:00;10.26;58.16
72650;SHT31;61467;50.674;4.618;2023-04-25T10:03:29;9.73;59.39
72650;SHT31;61467;50.674;4.618;2023-04-25T10:05:59;10.07;59.48
72650;SHT31;61467;50.674;4.618;2023-04-25T10:08:32;10.41;58.38
72650;SHT31;61467;50.674;4.618;2023-04-25T10:11:02;10.45;59.08
72650;SHT31;61467;50.674;4.618;2023-04-25T10:13:30;10.40;57.94
72650;SHT31;61467;50.674;4.618;2023-04-25T10:15:58;10.02;56.47
72650;SHT31;61467;50.674;4.618;2023-04-25T10:18:26;9.90;56.81
72650;SHT31;61467;50.674;4.618;2023-04-25T10:20:54;10.20;58.52
72650;SHT31;61467;50.674;4.618;2023-04-25T10:23:21;10.34;58.91
72650;SHT31;61467;50.674;4.618;2023-04-25T10:25:49;9.86;57.31
72650;SHT31;61467;50.674;4.618;2023-04-25T10:28:18;10.17;57.77
72650;SHT31;61467;50.674;4.618;2023-04-25T10:31:00;9.86;57.57
72650;SHT31;61467;50.674;4.618;2023-04-25T10:33:34;9.72;59.11
72650;SHT31;61467;50.674;4.618;2023-04-25T10:36:09;10.09;59.71
72650;SHT31;61467;50.674;4.618;2023-04-25T10:38:36;10.26;59.70
72650;SHT31;61467;50.674;4.618;2023-04-25T10:41:04;10.10;59.11
72650;SHT31;61467;50.674;4.618;2023-04-25T10:43:36;10.17;58.84
72650;SHT31;61467;50.674;4.618;2023-04-25T10:46:19;10.04;59.12
72650;SHT31;61467;50.674;4.618;2023-04-25T10:48:49;10.07;59.31
72650;SHT31;61467;50.674;4.618;2023-04-25T10:51:18;9.96;58.94
72650;SHT31;61467;50.674;4.618;2023-04-25T10:53:45;9.45;59.63
72650;SHT31;61467;50.674;4.618;2023-04-25T10:56:17;9.89;59.52
72650;SHT31;61467;50.674;4.618;2023-04-25T10:58:46;10.41;59.80
72650;SHT31;61467;50.674;4.618;2023-04-25T11:01:14;10.75;57.23
72650;SHT31;61467;50.674;4.618;2023-04-25T11:03:42;11.16;55.96
72650;SHT31;61467;50.674;4.618;2023-04-25T11:06:20;11.30;55.84
72650;SHT31;61467;50.674;4.618;2023-04-25T11:08:49;11.22;56.06
72650;SHT31;61467;50.674;4.618;2023-04-25T11:11:16;10.99;56.07
72650;SHT31;61467;50.674;4.618;2023-04-25T11:13:46;10.45;57.10
72650;SHT31;61467;50.674;4.618;2023-04-25T11:16:14;10.29;56.75
72650;SHT31;61467;50.674;4.618;2023-04-25T11:18:41;10.50;57.56
72650;SHT31;61467;50.674;4.618;2023-04-25T11:21:08;10.64;57.91
72650;SHT31;61467;50.674;4.618;2023-04-25T11:23:35;10.96;57.30
72650;SHT31;61467;50.674;4.618;2023-04-25T11:26:02;10.58;56.05
72650;SHT31;61467;50.674;4.618;2023-04-25T11:28:29;10.57;55.44
72650;SHT31;61467;50.674;4.618;2023-04-25T11:30:58;11.16;54.97
72650;SHT31;61467;50.674;4.618;2023-04-25T11:33:25;11.44;55.04
72650;SHT31;61467;50.674;4.618;2023-04-25T11:35:54;11.56;53.81
72650;SHT31;61467;50.674;4.618;2023-04-25T11:38:22;11.52;52.47
72650;SHT31;61467;50.674;4.618;2023-04-25T11:40:53;10.85;51.52
72650;SHT31;61467;50.674;4.618;2023-04-25T11:43:22;10.58;53.86
72650;SHT31;61467;50.674;4.618;2023-04-25T11:45:50;10.74;54.15
72650;SHT31;61467;50.674;4.618;2023-04-25T11:48:19;10.64;54.35
72650;SHT31;61467;50.674;4.618;2023-04-25T11:50:46;10.65;53.49
72650;SHT31;61467;50.674;4.618;2023-04-25T11:53:13;10.64;53.91
72650;SHT31;61467;50.674;4.618;2023-04-25T11:55:40;10.64;52.58
72650;SHT31;61467;50.674;4.618;2023-04-25T11:58:07;10.40;52.54
72650;SHT31;61467;50.674;4.618;2023-04-25T12:00:34;10.34;51.93
72650;SHT31;61467;50.674;4.618;2023-04-25T12:03:01;10.48;53.46
72650;SHT31;61467;50.674;4.618;2023-04-25T12:05:30;10.53;54.29
72650;SHT31;61467;50.674;4.618;2023-04-25T12:08:09;10.58;55.80
72650;SHT31;61467;50.674;4.618;2023-04-25T12:10:37;10.32;56.40
72650;SHT31;61467;50.674;4.618;2023-04-25T12:13:23;10.04;56.63
72650;SHT31;61467;50.674;4.618;2023-04-25T12:15:50;10.10;57.05
72650;SHT31;61467;50.674;4.618;2023-04-25T12:18:24;10.00;56.49
72650;SHT31;61467;50.674;4.618;2023-04-25T12:20:54;10.16;56.88
72650;SHT31;61467;50.674;4.618;2023-04-25T12:23:25;10.13;57.71
72650;SHT31;61467;50.674;4.618;2023-04-25T12:25:53;10.44;56.55
72650;SHT31;61467;50.674;4.618;2023-04-25T12:28:21;10.63;55.90
72650;SHT31;61467;50.674;4.618;2023-04-25T12:30:53;10.84;55.27
72650;SHT31;61467;50.674;4.618;2023-04-25T12:33:20;10.63;53.57
72650;SHT31;61467;50.674;4.618;2023-04-25T12:35:47;10.98;53.26
72650;SHT31;61467;50.674;4.618;2023-04-25T12:38:22;10.67;52.77
72650;SHT31;61467;50.674;4.618;2023-04-25T12:40:49;10.85;52.78
72650;SHT31;61467;50.674;4.618;2023-04-25T12:43:16;11.08;52.68
72650;SHT31;61467;50.674;4.618;2023-04-25T12:45:43;11.09;51.78
72650;SHT31;61467;50.674;4.618;2023-04-25T12:48:10;11.06;52.35
72650;SHT31;61467;50.674;4.618;2023-04-25T12:50:37;10.72;51.03
72650;SHT31;61467;50.674;4.618;2023-04-25T12:53:04;10.69;52.26
72650;SHT31;61467;50.674;4.618;2023-04-25T12:55:32;10.75;53.68
72650;SHT31;61467;50.674;4.618;2023-04-25T12:58:01;10.91;51.16
72650;SHT31;61467;50.674;4.618;2023-04-25T13:00:29;11.26;52.15
72650;SHT31;61467;50.674;4.618;2023-04-25T13:02:57;11.49;50.35
72650;SHT31;61467;50.674;4.618;2023-04-25T13:05:23;11.50;50.17
72650;SHT31;61467;50.674;4.618;2023-04-25T13:07:51;11.16;47.17
72650;SHT31;61467;50.674;4.618;2023-04-25T13:10:17;11.11;47.89
72650;SHT31;61467;50.674;4.618;2023-04-25T13:12:46;11.40;49.20
72650;SHT31;61467;50.674;4.618;2023-04-25T13:15:12;11.85;49.24
72650;SHT31;61467;50.674;4.618;2023-04-25T13:17:41;12.10;45.98
72650;SHT31;61467;50.674;4.618;2023-04-25T13:20:09;12.45;47.72
72650;SHT31;61467;50.674;4.618;2023-04-25T13:22:37;12.67;47.78
72650;SHT31;61467;50.674;4.618;2023-04-25T13:25:05;12.70;47.02
72650;SHT31;61467;50.674;4.618;2023-04-25T13:27:32;12.70;44.27
72650;SHT31;61467;50.674;4.618;2023-04-25T13:30:01;12.49;45.14
72650;SHT31;61467;50.674;4.618;2023-04-25T13:32:32;12.39;45.31
72650;SHT31;61467;50.674;4.618;2023-04-25T13:34:59;12.76;43.29
72650;SHT31;61467;50.674;4.618;2023-04-25T13:37:26;12.64;42.10
72650;SHT31;61467;50.674;4.618;2023-04-25T13:39:56;12.32;42.39
72650;SHT31;61467;50.674;4.618;2023-04-25T13:42:33;12.49;43.51
72650;SHT31;61467;50.674;4.618;2023-04-25T13:45:00;12.70;43.42
72650;SHT31;61467;50.674;4.618;2023-04-25T13:47:29;12.92;42.56
72650;SHT31;61467;50.674;4.618;2023-04-25T13:49:56;12.64;42.23
72650;SHT31;61467;50.674;4.618;2023-04-25T13:52:23;12.82;44.01
72650;SHT31;61467;50.674;4.618;2023-04-25T13:54:51;12.99;43.24
72650;SHT31;61467;50.674;4.618;2023-04-25T13:57:19;12.62;42.33
72650;SHT31;61467;50.674;4.618;2023-04-25T13:59:47;12.87;47.09
72650;SHT31;61467;50.674;4.618;2023-04-25T14:02:14;12.25;42.60
72650;SHT31;61467;50.674;4.618;2023-04-25T14:04:41;12.02;48.09
72650;SHT31;61467;50.674;4.618;2023-04-25T14:07:08;11.85;44.84
72650;SHT31;61467;50.674;4.618;2023-04-25T14:09:36;12.49;47.14
72650;SHT31;61467;50.674;4.618;2023-04-25T14:12:03;12.66;45.38
72650;SHT31;61467;50.674;4.618;2023-04-25T14:14:30;12.70;44.70
72650;SHT31;61467;50.674;4.618;2023-04-25T14:17:01;12.92;45.52
72650;SHT31;61467;50.674;4.618;2023-04-25T14:19:28;12.63;43.67
72650;SHT31;61467;50.674;4.618;2023-04-25T14:21:55;12.87;44.90
72650;SHT31;61467;50.674;4.618;2023-04-25T14:24:22;13.27;45.19
72650;SHT31;61467;50.674;4.618;2023-04-25T14:26:49;13.11;42.23
72650;SHT31;61467;50.674;4.618;2023-04-25T14:29:16;13.14;41.96
72650;SHT31;61467;50.674;4.618;2023-04-25T14:31:43;13.64;44.76
72650;SHT31;61467;50.674;4.618;2023-04-25T14:34:11;13.66;43.48
72650;SHT31;61467;50.674;4.618;2023-04-25T14:36:38;13.68;42.29
72650;SHT31;61467;50.674;4.618;2023-04-25T14:39:05;13.06;42.53
72650;SHT31;61467;50.674;4.618;2023-04-25T14:41:32;12.76;43.49
72650;SHT31;61467;50.674;4.618;2023-04-25T14:43:59;12.92;47.11
72650;SHT31;61467;50.674;4.618;2023-04-25T14:46:26;13.08;46.47
72650;SHT31;61467;50.674;4.618;2023-04-25T14:48:54;13.07;43.72
72650;SHT31;61467;50.674;4.618;2023-04-25T14:51:22;13.13;45.71
72650;SHT31;61467;50.674;4.618;2023-04-25T14:53:49;13.30;49.07
72650;SHT31;61467;50.674;4.618;2023-04-25T14:56:16;13.14;45.52
72650;SHT31;61467;50.674;4.618;2023-04-25T14:58:43;13.17;48.64
72650;SHT31;61467;50.674;4.618;2023-04-25T15:01:11;13.06;45.04
72650;SHT31;61467;50.674;4.618;2023-04-25T15:03:38;13.21;47.41
72650;SHT31;61467;50.674;4.618;2023-04-25T15:06:07;12.83;46.08
72650;SHT31;61467;50.674;4.618;2023-04-25T15:08:36;13.10;45.91
72650;SHT31;61467;50.674;4.618;2023-04-25T15:11:03;13.44;46.64
72650;SHT31;61467;50.674;4.618;2023-04-25T15:13:30;13.54;44.72
72650;SHT31;61467;50.674;4.618;2023-04-25T15:15:57;13.92;44.68
72650;SHT31;61467;50.674;4.618;2023-04-25T15:18:24;13.50;41.07
72650;SHT31;61467;50.674;4.618;2023-04-25T15:20:52;13.24;40.73
72650;SHT31;61467;50.674;4.618;2023-04-25T15:23:19;13.11;40.90
72650;SHT31;61467;50.674;4.618;2023-04-25T15:25:50;13.10;40.94
72650;SHT31;61467;50.674;4.618;2023-04-25T15:28:17;12.84;42.87
72650;SHT31;61467;50.674;4.618;2023-04-25T15:30:46;12.87;42.84
72650;SHT31;61467;50.674;4.618;2023-04-25T15:33:13;12.67;42.76
72650;SHT31;61467;50.674;4.618;2023-04-25T15:35:40;12.89;43.37
72650;SHT31;61467;50.674;4.618;2023-04-25T15:38:08;12.79;41.85
72650;SHT31;61467;50.674;4.618;2023-04-25T15:40:35;12.73;41.43
72650;SHT31;61467;50.674;4.618;2023-04-25T15:43:03;13.10;42.97
72650;SHT31;61467;50.674;4.618;2023-04-25T15:45:31;13.73;42.74